sensor_id;sensor_type;location;lat;lon;timestamp;P1;durP1;ratioP1;P2;durP2;ratioP2
34019;SDS011;20895;51.034;3.742;2023-06-10T00:01:17;8.68;;;5.45;;
34019;SDS011;20895;51.034;3.742;2023-06-10T00:03:43;11.10;;;5.10;;
34019;SDS011;20895;51.034;3.742;2023-06-10T00:06:08;6.95;;;5.10;;
34019;SDS011;20895;51.034;3.742;2023-06-10T00:08:33;9.57;;;5.30;;
34019;SDS011;20895;51.034;3.742;2023-06-10T00:10:59;7.93;;;5.38;;
34019;SDS011;20895;51.034;3.742;2023-06-10T00:13:28;7.30;;;5.72;;
34019;SDS011;20895;51.034;3.742;2023-06-10T00:15:53;5.85;;;5.25;;
34019;SDS011;20895;51.034;3.742;2023-06-10T00:18:18;7.05;;;5.40;;
34019;SDS011;20895;51.034;3.742;2023-06-10T00:20:46;7.57;;;5.55;;
34019;SDS011;20895;51.034;3.742;2023-06-10T00:23:14;8.35;;;5.25;;
34019;SDS011;20895;51.034;3.742;2023-06-10T00:25:39;9.50;;;5.25;;
34019;SDS011;20895;51.034;3.742;2023-06-10T00:28:04;10.23;;;6.03;;
34019;SDS011;20895;51.034;3.742;2023-06-10T00:30:30;9.02;;;5.50;;
34019;SDS011;20895;51.034;3.742;2023-06-10T00:32:55;9.68;;;5.18;;
34019;SDS011;20895;51.034;3.742;2023-06-10T00:35:21;7.82;;;5.65;;
34019;SDS011;20895;51.034;3.742;2023-06-10T00:37:46;9.93;;;5.72;;
34019;SDS011;20895;51.034;3.742;2023-06-10T00:40:11;6.47;;;5.03;;
34019;SDS011;20895;51.034;3.742;2023-06-10T00:42:37;6.38;;;4.97;;
34019;SDS011;20895;51.034;3.742;2023-06-10T00:45:02;8.32;;;5.45;;
34019;SDS011;20895;51.034;3.742;2023-06-10T00:47:28;7.90;;;5.57;;
34019;SDS011;20895;51.034;3.742;2023-06-10T00:49:53;8.48;;;5.57;;
34019;SDS011;20895;51.034;3.742;2023-06-10T00:52:19;6.10;;;5.30;;
34019;SDS011;20895;51.034;3.742;2023-06-10T00:54:47;8.25;;;5.60;;
34019;SDS011;20895;51.034;3.742;2023-06-10T00:57:12;6.07;;;5.00;;
34019;SDS011;20895;51.034;3.742;2023-06-10T00:59:39;7.43;;;5.32;;
34019;SDS011;20895;51.034;3.742;2023-06-10T01:02:04;10.05;;;5.60;;
34019;SDS011;20895;51.034;3.742;2023-06-10T01:04:30;7.68;;;5.72;;
34019;SDS011;20895;51.034;3.742;2023-06-10T01:09:36;6.90;;;5.13;;
34019;SDS011;20895;51.034;3.742;2023-06-10T01:14:40;6.50;;;5.75;;
34019;SDS011;20895;51.034;3.742;2023-06-10T01:17:10;8.18;;;5.93;;
34019;SDS011;20895;51.034;3.742;2023-06-10T01:19:35;8.88;;;6.15;;
34019;SDS011;20895;51.034;3.742;2023-06-10T01:22:01;8.90;;;5.03;;
34019;SDS011;20895;51.034;3.742;2023-06-10T01:24:27;6.07;;;5.18;;
34019;SDS011;20895;51.034;3.742;2023-06-10T01:26:53;7.80;;;5.05;;
34019;SDS011;20895;51.034;3.742;2023-06-10T01:29:28;6.47;;;5.38;;
34019;SDS011;20895;51.034;3.742;2023-06-10T01:32:01;6.95;;;6.05;;
34019;SDS011;20895;51.034;3.742;2023-06-10T01:34:28;12.38;;;5.68;;
34019;SDS011;20895;51.034;3.742;2023-06-10T01:36:55;7.00;;;5.47;;
34019;SDS011;20895;51.034;3.742;2023-06-10T01:39:22;7.18;;;5.35;;
34019;SDS011;20895;51.034;3.742;2023-06-10T01:41:49;8.93;;;5.38;;
34019;SDS011;20895;51.034;3.742;2023-06-10T01:44:17;8.57;;;5.80;;
34019;SDS011;20895;51.034;3.742;2023-06-10T01:46:42;10.15;;;6.28;;
34019;SDS011;20895;51.034;3.742;2023-06-10T01:49:08;7.47;;;5.90;;
34019;SDS011;20895;51.034;3.742;2023-06-10T01:51:33;8.63;;;6.30;;
34019;SDS011;20895;51.034;3.742;2023-06-10T01:53:58;9.77;;;5.20;;
34019;SDS011;20895;51.034;3.742;2023-06-10T01:56:23;6.60;;;5.90;;
34019;SDS011;20895;51.034;3.742;2023-06-10T01:58:49;10.20;;;6.73;;
34019;SDS011;20895;51.034;3.742;2023-06-10T02:01:14;11.73;;;7.13;;
34019;SDS011;20895;51.034;3.742;2023-06-10T02:03:39;7.53;;;5.22;;
34019;SDS011;20895;51.034;3.742;2023-06-10T02:06:05;9.73;;;6.10;;
34019;SDS011;20895;51.034;3.742;2023-06-10T02:08:30;10.70;;;6.78;;
34019;SDS011;20895;51.034;3.742;2023-06-10T02:10:55;8.38;;;6.30;;
34019;SDS011;20895;51.034;3.742;2023-06-10T02:13:20;7.87;;;6.00;;
34019;SDS011;20895;51.034;3.742;2023-06-10T02:15:46;7.80;;;6.47;;
34019;SDS011;20895;51.034;3.742;2023-06-10T02:18:11;8.33;;;5.97;;
34019;SDS011;20895;51.034;3.742;2023-06-10T02:20:37;10.48;;;5.82;;
34019;SDS011;20895;51.034;3.742;2023-06-10T02:23:02;6.50;;;5.82;;
34019;SDS011;20895;51.034;3.742;2023-06-10T02:25:28;7.82;;;6.00;;
34019;SDS011;20895;51.034;3.742;2023-06-10T02:27:53;8.93;;;6.20;;
34019;SDS011;20895;51.034;3.742;2023-06-10T02:30:18;9.73;;;6.10;;
34019;SDS011;20895;51.034;3.742;2023-06-10T02:32:44;7.00;;;6.10;;
34019;SDS011;20895;51.034;3.742;2023-06-10T02:35:13;6.80;;;6.07;;
34019;SDS011;20895;51.034;3.742;2023-06-10T02:37:38;14.07;;;8.70;;
34019;SDS011;20895;51.034;3.742;2023-06-10T02:40:03;7.10;;;5.80;;
34019;SDS011;20895;51.034;3.742;2023-06-10T02:42:29;9.95;;;6.32;;
34019;SDS011;20895;51.034;3.742;2023-06-10T02:44:55;8.77;;;6.20;;
34019;SDS011;20895;51.034;3.742;2023-06-10T02:47:20;7.68;;;6.82;;
34019;SDS011;20895;51.034;3.742;2023-06-10T02:49:45;11.73;;;7.20;;
34019;SDS011;20895;51.034;3.742;2023-06-10T02:52:10;9.47;;;6.43;;
34019;SDS011;20895;51.034;3.742;2023-06-10T02:54:36;7.65;;;6.57;;
34019;SDS011;20895;51.034;3.742;2023-06-10T02:57:02;11.40;;;6.65;;
34019;SDS011;20895;51.034;3.742;2023-06-10T02:59:27;10.55;;;6.72;;
34019;SDS011;20895;51.034;3.742;2023-06-10T03:01:53;10.18;;;6.97;;
34019;SDS011;20895;51.034;3.742;2023-06-10T03:04:19;9.13;;;6.15;;
34019;SDS011;20895;51.034;3.742;2023-06-10T03:06:45;7.85;;;6.40;;
34019;SDS011;20895;51.034;3.742;2023-06-10T03:09:12;8.00;;;6.38;;
34019;SDS011;20895;51.034;3.742;2023-06-10T03:11:37;8.98;;;6.63;;
34019;SDS011;20895;51.034;3.742;2023-06-10T03:14:02;7.37;;;6.67;;
34019;SDS011;20895;51.034;3.742;2023-06-10T03:16:28;8.70;;;6.63;;
34019;SDS011;20895;51.034;3.742;2023-06-10T03:18:55;8.82;;;6.78;;
34019;SDS011;20895;51.034;3.742;2023-06-10T03:21:20;7.97;;;6.75;;
34019;SDS011;20895;51.034;3.742;2023-06-10T03:23:45;9.68;;;6.22;;
34019;SDS011;20895;51.034;3.742;2023-06-10T03:26:11;7.40;;;6.47;;
34019;SDS011;20895;51.034;3.742;2023-06-10T03:28:37;10.63;;;7.53;;
34019;SDS011;20895;51.034;3.742;2023-06-10T03:31:02;8.32;;;7.07;;
34019;SDS011;20895;51.034;3.742;2023-06-10T03:33:28;11.82;;;7.18;;
34019;SDS011;20895;51.034;3.742;2023-06-10T03:35:53;10.50;;;6.87;;
34019;SDS011;20895;51.034;3.742;2023-06-10T03:38:18;7.37;;;6.50;;
34019;SDS011;20895;51.034;3.742;2023-06-10T03:40:44;14.73;;;9.25;;
34019;SDS011;20895;51.034;3.742;2023-06-10T03:43:09;7.55;;;6.75;;
34019;SDS011;20895;51.034;3.742;2023-06-10T03:45:35;9.57;;;6.97;;
34019;SDS011;20895;51.034;3.742;2023-06-10T03:48:01;8.60;;;7.47;;
34019;SDS011;20895;51.034;3.742;2023-06-10T03:50:27;8.82;;;7.03;;
34019;SDS011;20895;51.034;3.742;2023-06-10T03:52:52;9.35;;;7.13;;
34019;SDS011;20895;51.034;3.742;2023-06-10T03:55:17;11.00;;;6.45;;
34019;SDS011;20895;51.034;3.742;2023-06-10T03:57:43;14.35;;;8.15;;
34019;SDS011;20895;51.034;3.742;2023-06-10T04:00:09;8.05;;;6.63;;
34019;SDS011;20895;51.034;3.742;2023-06-10T04:02:38;9.48;;;7.63;;
34019;SDS011;20895;51.034;3.742;2023-06-10T04:05:10;8.20;;;7.38;;
34019;SDS011;20895;51.034;3.742;2023-06-10T04:07:35;9.52;;;7.28;;
34019;SDS011;20895;51.034;3.742;2023-06-10T04:10:01;10.15;;;6.65;;
34019;SDS011;20895;51.034;3.742;2023-06-10T04:12:27;9.68;;;7.78;;
34019;SDS011;20895;51.034;3.742;2023-06-10T04:14:52;10.63;;;8.00;;
34019;SDS011;20895;51.034;3.742;2023-06-10T04:17:18;11.02;;;7.75;;
34019;SDS011;20895;51.034;3.742;2023-06-10T04:19:43;9.63;;;7.93;;
34019;SDS011;20895;51.034;3.742;2023-06-10T04:22:08;10.67;;;7.53;;
34019;SDS011;20895;51.034;3.742;2023-06-10T04:24:33;9.03;;;6.90;;
34019;SDS011;20895;51.034;3.742;2023-06-10T04:26:59;8.75;;;7.78;;
34019;SDS011;20895;51.034;3.742;2023-06-10T04:29:25;11.98;;;7.97;;
34019;SDS011;20895;51.034;3.742;2023-06-10T04:31:50;8.17;;;7.33;;
34019;SDS011;20895;51.034;3.742;2023-06-10T04:34:15;9.98;;;7.57;;
34019;SDS011;20895;51.034;3.742;2023-06-10T04:36:41;10.23;;;7.57;;
34019;SDS011;20895;51.034;3.742;2023-06-10T04:39:06;10.00;;;8.43;;
34019;SDS011;20895;51.034;3.742;2023-06-10T04:41:31;10.10;;;7.30;;
34019;SDS011;20895;51.034;3.742;2023-06-10T04:43:56;8.57;;;7.45;;
34019;SDS011;20895;51.034;3.742;2023-06-10T04:46:22;9.10;;;7.63;;
34019;SDS011;20895;51.034;3.742;2023-06-10T04:48:48;9.50;;;8.02;;
34019;SDS011;20895;51.034;3.742;2023-06-10T04:51:13;9.38;;;7.57;;
34019;SDS011;20895;51.034;3.742;2023-06-10T04:53:39;11.25;;;7.82;;
34019;SDS011;20895;51.034;3.742;2023-06-10T04:56:04;7.88;;;7.10;;
34019;SDS011;20895;51.034;3.742;2023-06-10T04:58:29;9.48;;;7.85;;
34019;SDS011;20895;51.034;3.742;2023-06-10T05:00:55;11.00;;;7.68;;
34019;SDS011;20895;51.034;3.742;2023-06-10T05:03:20;8.80;;;7.38;;
34019;SDS011;20895;51.034;3.742;2023-06-10T05:05:45;10.65;;;8.10;;
34019;SDS011;20895;51.034;3.742;2023-06-10T05:08:11;9.35;;;8.35;;
34019;SDS011;20895;51.034;3.742;2023-06-10T05:10:36;9.10;;;8.10;;
34019;SDS011;20895;51.034;3.742;2023-06-10T05:13:01;12.60;;;7.97;;
34019;SDS011;20895;51.034;3.742;2023-06-10T05:15:28;8.77;;;7.95;;
34019;SDS011;20895;51.034;3.742;2023-06-10T05:17:53;10.50;;;7.93;;
34019;SDS011;20895;51.034;3.742;2023-06-10T05:20:18;9.93;;;8.65;;
34019;SDS011;20895;51.034;3.742;2023-06-10T05:22:44;9.57;;;7.65;;
34019;SDS011;20895;51.034;3.742;2023-06-10T05:25:09;9.60;;;8.68;;
34019;SDS011;20895;51.034;3.742;2023-06-10T05:27:35;10.65;;;7.75;;
34019;SDS011;20895;51.034;3.742;2023-06-10T05:30:00;9.60;;;8.20;;
34019;SDS011;20895;51.034;3.742;2023-06-10T05:32:26;8.50;;;7.70;;
34019;SDS011;20895;51.034;3.742;2023-06-10T05:34:51;11.63;;;7.70;;
34019;SDS011;20895;51.034;3.742;2023-06-10T05:37:16;10.07;;;8.65;;
34019;SDS011;20895;51.034;3.742;2023-06-10T05:39:41;9.63;;;7.95;;
34019;SDS011;20895;51.034;3.742;2023-06-10T05:42:07;10.88;;;7.88;;
34019;SDS011;20895;51.034;3.742;2023-06-10T05:44:33;12.00;;;10.88;;
34019;SDS011;20895;51.034;3.742;2023-06-10T05:46:58;10.95;;;8.38;;
34019;SDS011;20895;51.034;3.742;2023-06-10T05:49:23;9.57;;;8.35;;
34019;SDS011;20895;51.034;3.742;2023-06-10T05:51:49;8.73;;;7.82;;
34019;SDS011;20895;51.034;3.742;2023-06-10T05:54:14;12.20;;;8.40;;
34019;SDS011;20895;51.034;3.742;2023-06-10T05:56:39;7.75;;;6.95;;
34019;SDS011;20895;51.034;3.742;2023-06-10T05:59:05;11.27;;;7.75;;
34019;SDS011;20895;51.034;3.742;2023-06-10T06:01:30;11.63;;;7.32;;
34019;SDS011;20895;51.034;3.742;2023-06-10T06:03:55;8.27;;;7.20;;
34019;SDS011;20895;51.034;3.742;2023-06-10T06:06:20;9.02;;;7.35;;
34019;SDS011;20895;51.034;3.742;2023-06-10T06:08:46;8.63;;;7.60;;
34019;SDS011;20895;51.034;3.742;2023-06-10T06:11:11;8.82;;;7.38;;
34019;SDS011;20895;51.034;3.742;2023-06-10T06:13:36;9.43;;;7.15;;
34019;SDS011;20895;51.034;3.742;2023-06-10T06:16:02;9.60;;;6.80;;
34019;SDS011;20895;51.034;3.742;2023-06-10T06:18:27;12.75;;;7.95;;
34019;SDS011;20895;51.034;3.742;2023-06-10T06:20:52;8.98;;;7.55;;
34019;SDS011;20895;51.034;3.742;2023-06-10T06:23:17;8.77;;;7.10;;
34019;SDS011;20895;51.034;3.742;2023-06-10T06:25:42;6.80;;;6.10;;
34019;SDS011;20895;51.034;3.742;2023-06-10T06:28:09;7.30;;;6.47;;
34019;SDS011;20895;51.034;3.742;2023-06-10T06:30:35;11.23;;;7.18;;
34019;SDS011;20895;51.034;3.742;2023-06-10T06:33:00;8.38;;;7.22;;
34019;SDS011;20895;51.034;3.742;2023-06-10T06:35:25;9.15;;;7.15;;
34019;SDS011;20895;51.034;3.742;2023-06-10T06:37:50;8.43;;;6.90;;
34019;SDS011;20895;51.034;3.742;2023-06-10T06:40:16;7.75;;;6.30;;
34019;SDS011;20895;51.034;3.742;2023-06-10T06:42:41;7.82;;;6.70;;
34019;SDS011;20895;51.034;3.742;2023-06-10T06:45:06;11.00;;;6.47;;
34019;SDS011;20895;51.034;3.742;2023-06-10T06:47:32;6.70;;;5.93;;
34019;SDS011;20895;51.034;3.742;2023-06-10T06:49:57;8.32;;;6.40;;
34019;SDS011;20895;51.034;3.742;2023-06-10T06:52:22;7.30;;;6.53;;
34019;SDS011;20895;51.034;3.742;2023-06-10T06:54:47;9.07;;;6.20;;
34019;SDS011;20895;51.034;3.742;2023-06-10T06:57:13;8.48;;;6.55;;
34019;SDS011;20895;51.034;3.742;2023-06-10T06:59:38;8.07;;;6.47;;
34019;SDS011;20895;51.034;3.742;2023-06-10T07:02:03;8.40;;;6.97;;
34019;SDS011;20895;51.034;3.742;2023-06-10T07:04:28;8.40;;;5.90;;
34019;SDS011;20895;51.034;3.742;2023-06-10T07:06:54;7.07;;;5.72;;
34019;SDS011;20895;51.034;3.742;2023-06-10T07:09:19;8.23;;;6.70;;
34019;SDS011;20895;51.034;3.742;2023-06-10T07:11:44;7.97;;;6.35;;
34019;SDS011;20895;51.034;3.742;2023-06-10T07:14:10;7.43;;;5.77;;
34019;SDS011;20895;51.034;3.742;2023-06-10T07:16:35;13.18;;;6.25;;
34019;SDS011;20895;51.034;3.742;2023-06-10T07:19:00;10.40;;;6.27;;
34019;SDS011;20895;51.034;3.742;2023-06-10T07:21:25;9.13;;;6.45;;
34019;SDS011;20895;51.034;3.742;2023-06-10T07:23:51;6.10;;;5.20;;
34019;SDS011;20895;51.034;3.742;2023-06-10T07:26:19;11.57;;;6.10;;
34019;SDS011;20895;51.034;3.742;2023-06-10T07:28:44;8.35;;;6.30;;
34019;SDS011;20895;51.034;3.742;2023-06-10T07:31:09;8.05;;;6.28;;
34019;SDS011;20895;51.034;3.742;2023-06-10T07:33:36;8.90;;;6.78;;
34019;SDS011;20895;51.034;3.742;2023-06-10T07:36:04;9.95;;;6.03;;
34019;SDS011;20895;51.034;3.742;2023-06-10T07:38:29;9.80;;;6.15;;
34019;SDS011;20895;51.034;3.742;2023-06-10T07:40:54;6.40;;;5.67;;
34019;SDS011;20895;51.034;3.742;2023-06-10T07:43:19;10.60;;;5.97;;
34019;SDS011;20895;51.034;3.742;2023-06-10T07:45:45;6.72;;;5.13;;
34019;SDS011;20895;51.034;3.742;2023-06-10T07:48:10;9.70;;;6.00;;
34019;SDS011;20895;51.034;3.742;2023-06-10T07:50:35;8.13;;;6.07;;
34019;SDS011;20895;51.034;3.742;2023-06-10T07:53:01;9.35;;;6.75;;
34019;SDS011;20895;51.034;3.742;2023-06-10T07:55:26;7.13;;;5.38;;
34019;SDS011;20895;51.034;3.742;2023-06-10T07:57:51;7.87;;;5.97;;
34019;SDS011;20895;51.034;3.742;2023-06-10T08:00:17;8.70;;;6.22;;
34019;SDS011;20895;51.034;3.742;2023-06-10T08:02:42;11.30;;;5.75;;
34019;SDS011;20895;51.034;3.742;2023-06-10T08:05:08;7.13;;;5.53;;
34019;SDS011;20895;51.034;3.742;2023-06-10T08:07:33;8.00;;;5.45;;
34019;SDS011;20895;51.034;3.742;2023-06-10T08:09:58;9.93;;;7.43;;
34019;SDS011;20895;51.034;3.742;2023-06-10T08:12:23;8.17;;;5.43;;
34019;SDS011;20895;51.034;3.742;2023-06-10T08:14:49;7.63;;;6.07;;
34019;SDS011;20895;51.034;3.742;2023-06-10T08:17:14;9.05;;;5.38;;
34019;SDS011;20895;51.034;3.742;2023-06-10T08:19:39;7.22;;;5.38;;
34019;SDS011;20895;51.034;3.742;2023-06-10T08:22:05;6.45;;;5.40;;
34019;SDS011;20895;51.034;3.742;2023-06-10T08:24:30;7.05;;;4.90;;
34019;SDS011;20895;51.034;3.742;2023-06-10T08:26:55;7.73;;;4.80;;
34019;SDS011;20895;51.034;3.742;2023-06-10T08:29:23;5.72;;;4.82;;
34019;SDS011;20895;51.034;3.742;2023-06-10T08:31:48;6.18;;;5.20;;
34019;SDS011;20895;51.034;3.742;2023-06-10T08:34:13;8.73;;;5.10;;
34019;SDS011;20895;51.034;3.742;2023-06-10T08:36:39;6.78;;;5.28;;
34019;SDS011;20895;51.034;3.742;2023-06-10T08:39:04;8.23;;;5.03;;
34019;SDS011;20895;51.034;3.742;2023-06-10T08:41:30;9.43;;;5.45;;
34019;SDS011;20895;51.034;3.742;2023-06-10T08:44:01;10.38;;;6.45;;
34019;SDS011;20895;51.034;3.742;2023-06-10T08:46:28;9.88;;;5.05;;
34019;SDS011;20895;51.034;3.742;2023-06-10T08:48:55;8.25;;;4.78;;
34019;SDS011;20895;51.034;3.742;2023-06-10T08:51:22;7.10;;;5.57;;
34019;SDS011;20895;51.034;3.742;2023-06-10T08:54:00;8.45;;;5.03;;
34019;SDS011;20895;51.034;3.742;2023-06-10T08:56:26;6.22;;;5.53;;
34019;SDS011;20895;51.034;3.742;2023-06-10T08:58:53;5.63;;;5.00;;
34019;SDS011;20895;51.034;3.742;2023-06-10T09:01:18;7.95;;;5.07;;
34019;SDS011;20895;51.034;3.742;2023-06-10T09:03:44;7.47;;;5.68;;
34019;SDS011;20895;51.034;3.742;2023-06-10T09:06:09;6.20;;;5.28;;
34019;SDS011;20895;51.034;3.742;2023-06-10T09:08:35;6.53;;;5.78;;
34019;SDS011;20895;51.034;3.742;2023-06-10T09:11:00;7.00;;;4.75;;
34019;SDS011;20895;51.034;3.742;2023-06-10T09:13:25;8.32;;;5.22;;
34019;SDS011;20895;51.034;3.742;2023-06-10T09:15:50;7.73;;;5.17;;
34019;SDS011;20895;51.034;3.742;2023-06-10T09:18:16;5.70;;;4.88;;
34019;SDS011;20895;51.034;3.742;2023-06-10T09:20:42;7.75;;;5.30;;
34019;SDS011;20895;51.034;3.742;2023-06-10T09:23:08;6.72;;;5.03;;
34019;SDS011;20895;51.034;3.742;2023-06-10T09:25:36;7.95;;;4.95;;
34019;SDS011;20895;51.034;3.742;2023-06-10T09:28:02;5.68;;;4.70;;
34019;SDS011;20895;51.034;3.742;2023-06-10T09:30:29;8.48;;;5.10;;
34019;SDS011;20895;51.034;3.742;2023-06-10T09:32:55;6.45;;;4.93;;
34019;SDS011;20895;51.034;3.742;2023-06-10T09:35:22;7.47;;;5.07;;
34019;SDS011;20895;51.034;3.742;2023-06-10T09:37:49;8.38;;;4.95;;
34019;SDS011;20895;51.034;3.742;2023-06-10T09:40:14;5.95;;;4.95;;
34019;SDS011;20895;51.034;3.742;2023-06-10T09:42:40;6.03;;;4.30;;
34019;SDS011;20895;51.034;3.742;2023-06-10T09:45:05;6.38;;;4.75;;
34019;SDS011;20895;51.034;3.742;2023-06-10T09:47:31;6.97;;;4.53;;
34019;SDS011;20895;51.034;3.742;2023-06-10T09:49:56;5.70;;;4.72;;
34019;SDS011;20895;51.034;3.742;2023-06-10T09:52:22;6.72;;;4.65;;
34019;SDS011;20895;51.034;3.742;2023-06-10T09:54:48;7.63;;;4.57;;
34019;SDS011;20895;51.034;3.742;2023-06-10T09:57:13;7.78;;;4.90;;
34019;SDS011;20895;51.034;3.742;2023-06-10T09:59:41;7.80;;;5.20;;
34019;SDS011;20895;51.034;3.742;2023-06-10T10:02:06;7.25;;;4.78;;
34019;SDS011;20895;51.034;3.742;2023-06-10T10:04:38;7.05;;;4.55;;
34019;SDS011;20895;51.034;3.742;2023-06-10T10:07:03;7.33;;;4.73;;
34019;SDS011;20895;51.034;3.742;2023-06-10T10:09:29;7.60;;;4.70;;
34019;SDS011;20895;51.034;3.742;2023-06-10T10:11:54;5.70;;;4.70;;
34019;SDS011;20895;51.034;3.742;2023-06-10T10:14:20;6.55;;;4.78;;
34019;SDS011;20895;51.034;3.742;2023-06-10T10:16:46;6.43;;;4.85;;
34019;SDS011;20895;51.034;3.742;2023-06-10T10:19:14;10.40;;;5.00;;
34019;SDS011;20895;51.034;3.742;2023-06-10T10:21:43;6.15;;;4.07;;
34019;SDS011;20895;51.034;3.742;2023-06-10T10:24:14;7.40;;;4.50;;
34019;SDS011;20895;51.034;3.742;2023-06-10T10:26:41;5.80;;;4.63;;
34019;SDS011;20895;51.034;3.742;2023-06-10T10:31:47;10.88;;;4.75;;
34019;SDS011;20895;51.034;3.742;2023-06-10T10:34:16;6.05;;;4.15;;
34019;SDS011;20895;51.034;3.742;2023-06-10T10:36:43;5.65;;;3.95;;
34019;SDS011;20895;51.034;3.742;2023-06-10T10:39:09;6.30;;;4.55;;
34019;SDS011;20895;51.034;3.742;2023-06-10T10:41:35;5.40;;;4.35;;
34019;SDS011;20895;51.034;3.742;2023-06-10T10:44:01;6.75;;;4.35;;
34019;SDS011;20895;51.034;3.742;2023-06-10T10:46:27;4.53;;;3.72;;
34019;SDS011;20895;51.034;3.742;2023-06-10T10:48:53;4.30;;;3.50;;
34019;SDS011;20895;51.034;3.742;2023-06-10T10:51:19;6.90;;;4.20;;
34019;SDS011;20895;51.034;3.742;2023-06-10T10:53:44;5.80;;;3.80;;
34019;SDS011;20895;51.034;3.742;2023-06-10T10:56:29;4.75;;;3.67;;
34019;SDS011;20895;51.034;3.742;2023-06-10T10:59:05;6.22;;;3.70;;
34019;SDS011;20895;51.034;3.742;2023-06-10T11:01:48;8.02;;;3.95;;
34019;SDS011;20895;51.034;3.742;2023-06-10T11:04:14;5.28;;;3.55;;
34019;SDS011;20895;51.034;3.742;2023-06-10T11:06:51;4.78;;;4.15;;
34019;SDS011;20895;51.034;3.742;2023-06-10T11:09:26;4.68;;;3.60;;
34019;SDS011;20895;51.034;3.742;2023-06-10T11:11:53;4.22;;;3.40;;
34019;SDS011;20895;51.034;3.742;2023-06-10T11:14:30;4.35;;;3.13;;
34019;SDS011;20895;51.034;3.742;2023-06-10T11:16:57;3.75;;;3.20;;
34019;SDS011;20895;51.034;3.742;2023-06-10T11:19:32;4.75;;;3.33;;
34019;SDS011;20895;51.034;3.742;2023-06-10T11:21:59;4.15;;;3.10;;
34019;SDS011;20895;51.034;3.742;2023-06-10T11:24:25;5.93;;;3.20;;
34019;SDS011;20895;51.034;3.742;2023-06-10T11:26:51;3.80;;;3.42;;
34019;SDS011;20895;51.034;3.742;2023-06-10T11:29:16;6.35;;;3.83;;
34019;SDS011;20895;51.034;3.742;2023-06-10T11:31:42;4.85;;;3.40;;
34019;SDS011;20895;51.034;3.742;2023-06-10T11:34:08;8.40;;;3.47;;
34019;SDS011;20895;51.034;3.742;2023-06-10T11:36:34;6.47;;;3.72;;
34019;SDS011;20895;51.034;3.742;2023-06-10T11:39:05;4.47;;;3.50;;
34019;SDS011;20895;51.034;3.742;2023-06-10T11:41:31;3.90;;;3.30;;
34019;SDS011;20895;51.034;3.742;2023-06-10T11:44:01;7.32;;;3.53;;
34019;SDS011;20895;51.034;3.742;2023-06-10T11:46:26;3.58;;;3.22;;
34019;SDS011;20895;51.034;3.742;2023-06-10T11:48:56;4.80;;;3.70;;
34019;SDS011;20895;51.034;3.742;2023-06-10T11:51:22;5.95;;;3.60;;
34019;SDS011;20895;51.034;3.742;2023-06-10T11:53:47;6.28;;;3.20;;
34019;SDS011;20895;51.034;3.742;2023-06-10T11:56:13;4.93;;;3.40;;
34019;SDS011;20895;51.034;3.742;2023-06-10T11:58:39;3.92;;;3.30;;
34019;SDS011;20895;51.034;3.742;2023-06-10T12:01:07;5.32;;;3.40;;
34019;SDS011;20895;51.034;3.742;2023-06-10T12:03:36;7.43;;;3.17;;
34019;SDS011;20895;51.034;3.742;2023-06-10T12:06:03;3.75;;;2.97;;
34019;SDS011;20895;51.034;3.742;2023-06-10T12:08:29;6.32;;;3.38;;
34019;SDS011;20895;51.034;3.742;2023-06-10T12:10:55;3.80;;;3.20;;
34019;SDS011;20895;51.034;3.742;2023-06-10T12:13:22;5.60;;;2.90;;
34019;SDS011;20895;51.034;3.742;2023-06-10T12:15:48;3.88;;;3.22;;
34019;SDS011;20895;51.034;3.742;2023-06-10T12:18:23;9.05;;;3.75;;
34019;SDS011;20895;51.034;3.742;2023-06-10T12:20:49;4.32;;;3.28;;
34019;SDS011;20895;51.034;3.742;2023-06-10T12:23:15;7.78;;;3.20;;
34019;SDS011;20895;51.034;3.742;2023-06-10T12:25:51;4.15;;;3.40;;
34019;SDS011;20895;51.034;3.742;2023-06-10T12:28:22;5.32;;;3.47;;
34019;SDS011;20895;51.034;3.742;2023-06-10T12:30:47;5.63;;;3.60;;
34019;SDS011;20895;51.034;3.742;2023-06-10T12:33:19;6.30;;;3.10;;
34019;SDS011;20895;51.034;3.742;2023-06-10T12:35:48;4.60;;;3.55;;
34019;SDS011;20895;51.034;3.742;2023-06-10T12:38:14;5.20;;;3.50;;
34019;SDS011;20895;51.034;3.742;2023-06-10T12:40:39;3.88;;;3.38;;
34019;SDS011;20895;51.034;3.742;2023-06-10T12:43:05;7.93;;;3.75;;
34019;SDS011;20895;51.034;3.742;2023-06-10T12:45:31;4.88;;;3.22;;
34019;SDS011;20895;51.034;3.742;2023-06-10T12:48:06;5.88;;;3.25;;
34019;SDS011;20895;51.034;3.742;2023-06-10T12:50:34;7.47;;;3.30;;
34019;SDS011;20895;51.034;3.742;2023-06-10T12:52:59;5.75;;;3.10;;
34019;SDS011;20895;51.034;3.742;2023-06-10T12:55:25;5.78;;;2.97;;
34019;SDS011;20895;51.034;3.742;2023-06-10T12:57:51;4.40;;;3.25;;
34019;SDS011;20895;51.034;3.742;2023-06-10T13:00:17;7.53;;;3.88;;
34019;SDS011;20895;51.034;3.742;2023-06-10T13:02:43;4.82;;;3.50;;
34019;SDS011;20895;51.034;3.742;2023-06-10T13:05:08;5.87;;;3.73;;
34019;SDS011;20895;51.034;3.742;2023-06-10T13:07:33;7.05;;;3.30;;
34019;SDS011;20895;51.034;3.742;2023-06-10T13:09:59;6.38;;;3.72;;
34019;SDS011;20895;51.034;3.742;2023-06-10T13:12:25;5.77;;;4.97;;
34019;SDS011;20895;51.034;3.742;2023-06-10T13:14:50;5.78;;;3.60;;
34019;SDS011;20895;51.034;3.742;2023-06-10T13:17:15;6.20;;;3.77;;
34019;SDS011;20895;51.034;3.742;2023-06-10T13:19:41;5.40;;;3.35;;
34019;SDS011;20895;51.034;3.742;2023-06-10T13:22:07;5.65;;;3.58;;
34019;SDS011;20895;51.034;3.742;2023-06-10T13:24:32;4.83;;;3.30;;
34019;SDS011;20895;51.034;3.742;2023-06-10T13:26:57;4.82;;;3.15;;
34019;SDS011;20895;51.034;3.742;2023-06-10T13:29:23;4.00;;;3.40;;
34019;SDS011;20895;51.034;3.742;2023-06-10T13:31:48;5.40;;;3.97;;
34019;SDS011;20895;51.034;3.742;2023-06-10T13:34:13;3.63;;;3.33;;
34019;SDS011;20895;51.034;3.742;2023-06-10T13:36:38;5.10;;;3.57;;
34019;SDS011;20895;51.034;3.742;2023-06-10T13:39:04;4.20;;;3.17;;
34019;SDS011;20895;51.034;3.742;2023-06-10T13:41:29;3.80;;;3.27;;
34019;SDS011;20895;51.034;3.742;2023-06-10T13:43:54;6.97;;;3.33;;
34019;SDS011;20895;51.034;3.742;2023-06-10T13:46:20;5.88;;;3.60;;
34019;SDS011;20895;51.034;3.742;2023-06-10T13:48:46;5.40;;;3.30;;
34019;SDS011;20895;51.034;3.742;2023-06-10T13:51:12;5.72;;;3.80;;
34019;SDS011;20895;51.034;3.742;2023-06-10T13:53:37;4.80;;;4.33;;
34019;SDS011;20895;51.034;3.742;2023-06-10T13:56:02;6.32;;;3.72;;
34019;SDS011;20895;51.034;3.742;2023-06-10T13:58:27;6.13;;;4.22;;
34019;SDS011;20895;51.034;3.742;2023-06-10T14:00:53;8.07;;;3.67;;
34019;SDS011;20895;51.034;3.742;2023-06-10T14:03:18;9.68;;;3.70;;
34019;SDS011;20895;51.034;3.742;2023-06-10T14:05:43;5.15;;;3.28;;
34019;SDS011;20895;51.034;3.742;2023-06-10T14:08:08;5.22;;;3.75;;
34019;SDS011;20895;51.034;3.742;2023-06-10T14:10:34;9.13;;;3.33;;
34019;SDS011;20895;51.034;3.742;2023-06-10T14:12:59;8.80;;;3.60;;
34019;SDS011;20895;51.034;3.742;2023-06-10T14:15:25;5.10;;;2.97;;
34019;SDS011;20895;51.034;3.742;2023-06-10T14:17:50;6.03;;;3.50;;
34019;SDS011;20895;51.034;3.742;2023-06-10T14:20:16;5.68;;;3.63;;
34019;SDS011;20895;51.034;3.742;2023-06-10T14:22:41;5.50;;;3.53;;
34019;SDS011;20895;51.034;3.742;2023-06-10T14:25:06;5.77;;;3.27;;
34019;SDS011;20895;51.034;3.742;2023-06-10T14:27:31;7.82;;;4.05;;
34019;SDS011;20895;51.034;3.742;2023-06-10T14:29:57;7.43;;;3.77;;
34019;SDS011;20895;51.034;3.742;2023-06-10T14:32:22;7.80;;;3.77;;
34019;SDS011;20895;51.034;3.742;2023-06-10T14:34:47;4.67;;;3.97;;
34019;SDS011;20895;51.034;3.742;2023-06-10T14:37:12;5.97;;;3.60;;
34019;SDS011;20895;51.034;3.742;2023-06-10T14:39:38;6.70;;;3.90;;
34019;SDS011;20895;51.034;3.742;2023-06-10T14:42:03;9.03;;;4.07;;
34019;SDS011;20895;51.034;3.742;2023-06-10T14:44:28;4.15;;;2.85;;
34019;SDS011;20895;51.034;3.742;2023-06-10T14:46:54;3.53;;;2.97;;